Silver Lake, South Dakota
Current Conditions -  °F | °C
As of 2:53 AM on Friday 31 Oct 2014 (Local Time) from KMHE Reporting Station
Clear Clear  
Wind Chill: 14°   Ceiling: Unl
Heat Index: 24°   Visibility: 10mi
Dew Point: 20°   Wind: 9mph
Humidity: 84%   Direction: 340°NNW
Pressure: 30.57"   Gusts: NA
Location:  43.5669°N, 97.5001°W
Report Text: KMHE 310753Z AUTO 34008KT 10SM CLR M04/M07 A3057 RMK AO2 SLP367 T10441067
Loading
Personal Weather Stations






























Interactive Weather Map
Tropical Storm Tracking
New forecast layout! Learn more

10-Day Weather Forecast

Advertisements
Track Severe Weather on mobile